sensor_id;sensor_type;location;lat;lon;timestamp;P1;durP1;ratioP1;P2;durP2;ratioP2
57303;SDS011;43150;50.986;18.208;2022-11-13T00:05:25;41.20;;;27.60;;
57303;SDS011;43150;50.986;18.208;2022-11-13T00:15:07;35.50;;;19.50;;
57303;SDS011;43150;50.986;18.208;2022-11-13T00:24:51;25.70;;;21.50;;
57303;SDS011;43150;50.986;18.208;2022-11-13T00:41:50;30.60;;;22.80;;
57303;SDS011;43150;50.986;18.208;2022-11-13T00:51:32;13.90;;;12.40;;
57303;SDS011;43150;50.986;18.208;2022-11-13T01:01:21;15.70;;;12.20;;
57303;SDS011;43150;50.986;18.208;2022-11-13T01:11:10;32.50;;;21.10;;
57303;SDS011;43150;50.986;18.208;2022-11-13T01:21:00;41.20;;;26.50;;
57303;SDS011;43150;50.986;18.208;2022-11-13T01:30:45;34.10;;;24.70;;
57303;SDS011;43150;50.986;18.208;2022-11-13T01:40:27;14.20;;;11.70;;
57303;SDS011;43150;50.986;18.208;2022-11-13T01:50:12;41.20;;;27.00;;
57303;SDS011;43150;50.986;18.208;2022-11-13T02:00:02;29.80;;;23.00;;
57303;SDS011;43150;50.986;18.208;2022-11-13T02:09:53;23.20;;;18.50;;
57303;SDS011;43150;50.986;18.208;2022-11-13T02:19:37;32.90;;;27.00;;
57303;SDS011;43150;50.986;18.208;2022-11-13T02:29:31;40.50;;;25.80;;
57303;SDS011;43150;50.986;18.208;2022-11-13T02:39:13;30.10;;;25.40;;
57303;SDS011;43150;50.986;18.208;2022-11-13T02:48:55;35.10;;;28.10;;
57303;SDS011;43150;50.986;18.208;2022-11-13T02:58:37;28.40;;;24.00;;
57303;SDS011;43150;50.986;18.208;2022-11-13T03:08:21;30.50;;;25.30;;
57303;SDS011;43150;50.986;18.208;2022-11-13T03:18:05;39.60;;;25.90;;
57303;SDS011;43150;50.986;18.208;2022-11-13T03:27:48;25.30;;;21.70;;
57303;SDS011;43150;50.986;18.208;2022-11-13T03:37:30;34.00;;;23.60;;
57303;SDS011;43150;50.986;18.208;2022-11-13T03:47:12;30.20;;;26.10;;
57303;SDS011;43150;50.986;18.208;2022-11-13T03:56:54;30.40;;;23.80;;
57303;SDS011;43150;50.986;18.208;2022-11-13T04:06:36;29.20;;;23.20;;
57303;SDS011;43150;50.986;18.208;2022-11-13T04:23:33;32.00;;;24.90;;
57303;SDS011;43150;50.986;18.208;2022-11-13T04:33:19;27.80;;;22.20;;
57303;SDS011;43150;50.986;18.208;2022-11-13T04:43:00;21.30;;;15.20;;
57303;SDS011;43150;50.986;18.208;2022-11-13T04:52:42;36.00;;;24.40;;
57303;SDS011;43150;50.986;18.208;2022-11-13T05:09:43;27.10;;;16.70;;
57303;SDS011;43150;50.986;18.208;2022-11-13T05:19:26;38.10;;;27.10;;
57303;SDS011;43150;50.986;18.208;2022-11-13T05:29:15;28.50;;;21.80;;
57303;SDS011;43150;50.986;18.208;2022-11-13T05:38:56;31.20;;;25.40;;
57303;SDS011;43150;50.986;18.208;2022-11-13T05:48:38;33.90;;;27.50;;
57303;SDS011;43150;50.986;18.208;2022-11-13T05:58:27;41.70;;;30.50;;
57303;SDS011;43150;50.986;18.208;2022-11-13T06:15:35;41.30;;;31.10;;
57303;SDS011;43150;50.986;18.208;2022-11-13T06:25:21;36.00;;;23.40;;
57303;SDS011;43150;50.986;18.208;2022-11-13T06:42:21;28.20;;;19.20;;
57303;SDS011;43150;50.986;18.208;2022-11-13T06:52:02;25.60;;;17.20;;
57303;SDS011;43150;50.986;18.208;2022-11-13T07:01:44;46.40;;;34.80;;
57303;SDS011;43150;50.986;18.208;2022-11-13T07:11:27;42.60;;;26.60;;
57303;SDS011;43150;50.986;18.208;2022-11-13T07:21:12;22.40;;;16.50;;
57303;SDS011;43150;50.986;18.208;2022-11-13T07:30:59;35.60;;;29.70;;
57303;SDS011;43150;50.986;18.208;2022-11-13T07:40:44;41.40;;;30.40;;
57303;SDS011;43150;50.986;18.208;2022-11-13T07:50:30;31.80;;;24.00;;
57303;SDS011;43150;50.986;18.208;2022-11-13T08:07:28;22.50;;;16.10;;
57303;SDS011;43150;50.986;18.208;2022-11-13T08:17:18;24.90;;;22.50;;
57303;SDS011;43150;50.986;18.208;2022-11-13T08:34:20;31.40;;;26.80;;
57303;SDS011;43150;50.986;18.208;2022-11-13T08:44:01;31.80;;;25.70;;
57303;SDS011;43150;50.986;18.208;2022-11-13T08:53:44;32.30;;;28.90;;
57303;SDS011;43150;50.986;18.208;2022-11-13T09:03:26;31.10;;;25.10;;
57303;SDS011;43150;50.986;18.208;2022-11-13T09:13:09;29.20;;;26.10;;
57303;SDS011;43150;50.986;18.208;2022-11-13T09:22:55;32.50;;;29.00;;
57303;SDS011;43150;50.986;18.208;2022-11-13T09:32:37;18.20;;;12.30;;
57303;SDS011;43150;50.986;18.208;2022-11-13T09:42:25;37.10;;;28.60;;
57303;SDS011;43150;50.986;18.208;2022-11-13T09:52:12;32.30;;;24.40;;
57303;SDS011;43150;50.986;18.208;2022-11-13T10:02:19;39.00;;;26.20;;
57303;SDS011;43150;50.986;18.208;2022-11-13T10:11:58;35.40;;;27.30;;
57303;SDS011;43150;50.986;18.208;2022-11-13T10:21:44;32.30;;;20.30;;
57303;SDS011;43150;50.986;18.208;2022-11-13T10:31:39;37.70;;;25.70;;
57303;SDS011;43150;50.986;18.208;2022-11-13T10:41:21;47.60;;;34.50;;
57303;SDS011;43150;50.986;18.208;2022-11-13T10:51:17;51.10;;;34.30;;
57303;SDS011;43150;50.986;18.208;2022-11-13T11:01:00;23.10;;;16.50;;
57303;SDS011;43150;50.986;18.208;2022-11-13T11:10:52;50.00;;;30.60;;
57303;SDS011;43150;50.986;18.208;2022-11-13T11:20:54;32.40;;;18.90;;
57303;SDS011;43150;50.986;18.208;2022-11-13T11:30:43;52.30;;;36.10;;
57303;SDS011;43150;50.986;18.208;2022-11-13T11:43:06;52.10;;;34.40;;
57303;SDS011;43150;50.986;18.208;2022-11-13T11:53:04;39.60;;;29.90;;
57303;SDS011;43150;50.986;18.208;2022-11-13T12:22:46;42.10;;;33.80;;
57303;SDS011;43150;50.986;18.208;2022-11-13T12:42:33;25.00;;;17.90;;
57303;SDS011;43150;50.986;18.208;2022-11-13T12:52:20;39.30;;;27.30;;
57303;SDS011;43150;50.986;18.208;2022-11-13T13:29:24;33.30;;;26.50;;
57303;SDS011;43150;50.986;18.208;2022-11-13T13:49:11;31.90;;;28.00;;
57303;SDS011;43150;50.986;18.208;2022-11-13T13:58:55;27.80;;;24.80;;
57303;SDS011;43150;50.986;18.208;2022-11-13T14:08:36;31.20;;;23.30;;
57303;SDS011;43150;50.986;18.208;2022-11-13T14:18:19;33.50;;;26.40;;
57303;SDS011;43150;50.986;18.208;2022-11-13T14:28:01;30.10;;;23.70;;
57303;SDS011;43150;50.986;18.208;2022-11-13T14:37:51;30.90;;;24.60;;
57303;SDS011;43150;50.986;18.208;2022-11-13T14:47:34;35.40;;;27.90;;
57303;SDS011;43150;50.986;18.208;2022-11-13T14:57:18;25.70;;;16.60;;
57303;SDS011;43150;50.986;18.208;2022-11-13T15:07:01;31.20;;;19.20;;
57303;SDS011;43150;50.986;18.208;2022-11-13T15:16:47;38.20;;;29.30;;
57303;SDS011;43150;50.986;18.208;2022-11-13T15:26:31;25.40;;;18.40;;
57303;SDS011;43150;50.986;18.208;2022-11-13T15:36:15;42.10;;;27.50;;
57303;SDS011;43150;50.986;18.208;2022-11-13T15:45:57;78.80;;;42.90;;
57303;SDS011;43150;50.986;18.208;2022-11-13T15:55:39;49.10;;;32.00;;
57303;SDS011;43150;50.986;18.208;2022-11-13T16:05:24;54.70;;;31.00;;
57303;SDS011;43150;50.986;18.208;2022-11-13T16:15:08;50.30;;;31.60;;
57303;SDS011;43150;50.986;18.208;2022-11-13T16:24:51;74.50;;;37.50;;
57303;SDS011;43150;50.986;18.208;2022-11-13T16:34:33;69.30;;;43.40;;
57303;SDS011;43150;50.986;18.208;2022-11-13T16:44:15;80.70;;;45.80;;
57303;SDS011;43150;50.986;18.208;2022-11-13T16:53:56;81.60;;;41.00;;
57303;SDS011;43150;50.986;18.208;2022-11-13T17:10:57;46.60;;;32.40;;
57303;SDS011;43150;50.986;18.208;2022-11-13T17:20:38;39.90;;;26.60;;
57303;SDS011;43150;50.986;18.208;2022-11-13T17:30:20;62.80;;;35.30;;
57303;SDS011;43150;50.986;18.208;2022-11-13T17:40:02;55.30;;;34.90;;
57303;SDS011;43150;50.986;18.208;2022-11-13T17:49:52;38.50;;;27.80;;
57303;SDS011;43150;50.986;18.208;2022-11-13T17:59:38;73.50;;;39.50;;
57303;SDS011;43150;50.986;18.208;2022-11-13T18:09:21;55.10;;;35.50;;
57303;SDS011;43150;50.986;18.208;2022-11-13T18:19:03;38.40;;;30.10;;
57303;SDS011;43150;50.986;18.208;2022-11-13T18:28:47;46.10;;;35.30;;
57303;SDS011;43150;50.986;18.208;2022-11-13T18:38:28;80.60;;;43.10;;
57303;SDS011;43150;50.986;18.208;2022-11-13T18:48:11;44.90;;;32.10;;
57303;SDS011;43150;50.986;18.208;2022-11-13T18:57:52;62.50;;;43.70;;
57303;SDS011;43150;50.986;18.208;2022-11-13T19:07:34;54.00;;;30.10;;
57303;SDS011;43150;50.986;18.208;2022-11-13T19:17:16;145.10;;;41.70;;
57303;SDS011;43150;50.986;18.208;2022-11-13T19:26:58;89.70;;;45.30;;
57303;SDS011;43150;50.986;18.208;2022-11-13T19:36:43;126.70;;;45.10;;
57303;SDS011;43150;50.986;18.208;2022-11-13T19:41:38;89.60;;;45.80;;
57303;SDS011;43150;50.986;18.208;2022-11-13T19:51:24;83.10;;;42.90;;
57303;SDS011;43150;50.986;18.208;2022-11-13T20:01:18;60.10;;;36.80;;
57303;SDS011;43150;50.986;18.208;2022-11-13T20:11:04;75.90;;;46.00;;
57303;SDS011;43150;50.986;18.208;2022-11-13T20:20:47;68.60;;;44.50;;
57303;SDS011;43150;50.986;18.208;2022-11-13T20:30:32;62.00;;;45.40;;
57303;SDS011;43150;50.986;18.208;2022-11-13T20:40:17;74.10;;;46.90;;
57303;SDS011;43150;50.986;18.208;2022-11-13T20:49:59;92.10;;;50.90;;
57303;SDS011;43150;50.986;18.208;2022-11-13T20:59:47;49.60;;;33.20;;
57303;SDS011;43150;50.986;18.208;2022-11-13T21:09:28;96.30;;;52.90;;
57303;SDS011;43150;50.986;18.208;2022-11-13T21:19:10;95.80;;;52.30;;
57303;SDS011;43150;50.986;18.208;2022-11-13T21:28:57;92.00;;;45.60;;
57303;SDS011;43150;50.986;18.208;2022-11-13T21:46:12;44.80;;;35.00;;
57303;SDS011;43150;50.986;18.208;2022-11-13T21:55:55;75.90;;;47.30;;
57303;SDS011;43150;50.986;18.208;2022-11-13T22:05:37;76.00;;;44.70;;
57303;SDS011;43150;50.986;18.208;2022-11-13T22:15:21;75.30;;;39.90;;
57303;SDS011;43150;50.986;18.208;2022-11-13T22:25:07;106.20;;;49.30;;
57303;SDS011;43150;50.986;18.208;2022-11-13T22:34:52;51.50;;;33.30;;
57303;SDS011;43150;50.986;18.208;2022-11-13T22:44:37;55.30;;;38.80;;
57303;SDS011;43150;50.986;18.208;2022-11-13T23:08:54;51.00;;;36.70;;
57303;SDS011;43150;50.986;18.208;2022-11-13T23:18:36;48.70;;;31.30;;
57303;SDS011;43150;50.986;18.208;2022-11-13T23:28:18;42.60;;;28.90;;
57303;SDS011;43150;50.986;18.208;2022-11-13T23:38:03;39.90;;;29.40;;
57303;SDS011;43150;50.986;18.208;2022-11-13T23:47:48;75.50;;;36.10;;
57303;SDS011;43150;50.986;18.208;2022-11-13T23:57:29;47.60;;;34.20;;
